DART12 EPDE-EPDE
Flight info
| Callsign | DART12 |
|---|---|
| Flight time | 0h 28m |
| Altitude | 5000 |
| Route | DCT TDN TCNZ |
| Aircraft | M346/L-S/C |
Departure
| Time | 2026-04-15 21:14 |
|---|---|
| Airport | Deblin Military Air Base (EPDE) |
Arrival
| Time | 2026-04-15 21:42 |
|---|---|
| Airport | Deblin Military Air Base (EPDE) |
| Time | Latitude | Longitude | Altitude | Speed | Heading |
|---|---|---|---|---|---|
| 2026-04-15 21:12 | 51.54524 | 21.90534 | 382 ft | 0 kts | 32° |
| 2026-04-15 21:13 | 51.54516 | 21.90526 | 383 ft | 0 kts | 32° |
| 2026-04-15 21:13 | 51.54537 | 21.90547 | 382 ft | 14 kts | 32° |
| 2026-04-15 21:13 | 51.54630 | 21.90504 | 382 ft | 18 kts | 301° |
| 2026-04-15 21:13 | 51.54859 | 21.89888 | 418 ft | 150 kts | 301° |
| 2026-04-15 21:14 | 51.55295 | 21.88677 | 993 ft | 246 kts | 300° |
| 2026-04-15 21:14 | 51.56805 | 21.86342 | 2560 ft | 377 kts | 352° |
| 2026-04-15 21:14 | 51.58592 | 21.88924 | 4235 ft | 398 kts | 94° |
| 2026-04-15 21:14 | 51.58526 | 21.93761 | 5601 ft | 478 kts | 91° |
| 2026-04-15 21:15 | 51.58509 | 21.99522 | 5314 ft | 544 kts | 91° |
| 2026-04-15 21:15 | 51.58336 | 22.05812 | 5051 ft | 550 kts | 101° |
| 2026-04-15 21:15 | 51.56312 | 22.09626 | 4679 ft | 424 kts | 169° |
| 2026-04-15 21:15 | 51.53608 | 22.09090 | 3829 ft | 373 kts | 209° |
| 2026-04-15 21:16 | 51.51824 | 22.06502 | 3005 ft | 344 kts | 235° |
| 2026-04-15 21:16 | 51.50740 | 22.03499 | 3190 ft | 278 kts | 250° |
| 2026-04-15 21:16 | 51.50979 | 22.00711 | 2133 ft | 258 kts | 296° |
| 2026-04-15 21:16 | 51.51778 | 21.98311 | 1703 ft | 216 kts | 299° |
| 2026-04-15 21:17 | 51.52382 | 21.96597 | 1312 ft | 143 kts | 299° |
| 2026-04-15 21:17 | 51.52821 | 21.95401 | 914 ft | 123 kts | 301° |
| 2026-04-15 21:17 | 51.53289 | 21.94143 | 831 ft | 143 kts | 301° |
| 2026-04-15 21:17 | 51.53817 | 21.92713 | 751 ft | 147 kts | 301° |
| 2026-04-15 21:18 | 51.54384 | 21.91168 | 623 ft | 208 kts | 300° |
| 2026-04-15 21:18 | 51.55710 | 21.88736 | 1332 ft | 350 kts | 341° |
| 2026-04-15 21:18 | 51.57775 | 21.90198 | 2616 ft | 390 kts | 72° |
| 2026-04-15 21:18 | 51.57799 | 21.94804 | 3670 ft | 433 kts | 91° |
| 2026-04-15 21:19 | 51.57751 | 21.99600 | 4201 ft | 420 kts | 91° |
| 2026-04-15 21:19 | 51.57743 | 22.04202 | 4655 ft | 413 kts | 88° |
| 2026-04-15 21:19 | 51.57610 | 22.08822 | 4718 ft | 397 kts | 106° |
| 2026-04-15 21:19 | 51.55926 | 22.11468 | 4507 ft | 318 kts | 166° |
| 2026-04-15 21:20 | 51.53722 | 22.12033 | 4299 ft | 318 kts | 176° |
| 2026-04-15 21:20 | 51.51689 | 22.11449 | 4189 ft | 287 kts | 209° |
| 2026-04-15 21:20 | 51.50140 | 22.09636 | 3935 ft | 271 kts | 232° |
| 2026-04-15 21:20 | 51.49237 | 22.07068 | 3543 ft | 260 kts | 252° |
| 2026-04-15 21:21 | 51.49478 | 22.04475 | 2741 ft | 233 kts | 301° |
| 2026-04-15 21:21 | 51.50207 | 22.02512 | 2507 ft | 173 kts | 299° |
| 2026-04-15 21:21 | 51.50764 | 22.00975 | 2148 ft | 149 kts | 300° |
| 2026-04-15 21:21 | 51.51267 | 21.99576 | 1784 ft | 141 kts | 301° |
| 2026-04-15 21:22 | 51.51754 | 21.98248 | 1409 ft | 136 kts | 301° |
| 2026-04-15 21:22 | 51.52219 | 21.96991 | 1083 ft | 127 kts | 302° |
| 2026-04-15 21:22 | 51.52657 | 21.95833 | 864 ft | 117 kts | 301° |
| 2026-04-15 21:22 | 51.53125 | 21.94560 | 876 ft | 145 kts | 301° |
| 2026-04-15 21:23 | 51.53603 | 21.93292 | 703 ft | 129 kts | 301° |
| 2026-04-15 21:23 | 51.54064 | 21.92033 | 557 ft | 133 kts | 301° |
| 2026-04-15 21:23 | 51.54609 | 21.90574 | 485 ft | 229 kts | 300° |
| 2026-04-15 21:23 | 51.56105 | 21.88476 | 1283 ft | 345 kts | 21° |
| 2026-04-15 21:24 | 51.56551 | 21.92128 | 3342 ft | 394 kts | 114° |
| 2026-04-15 21:24 | 51.55373 | 21.96322 | 4100 ft | 425 kts | 114° |
| 2026-04-15 21:24 | 51.54188 | 22.00710 | 4600 ft | 429 kts | 113° |
| 2026-04-15 21:24 | 51.53016 | 22.05056 | 4863 ft | 413 kts | 114° |
| 2026-04-15 21:25 | 51.51338 | 22.08328 | 4611 ft | 355 kts | 170° |
| 2026-04-15 21:25 | 51.49270 | 22.07199 | 3680 ft | 307 kts | 221° |
| 2026-04-15 21:25 | 51.49355 | 22.04754 | 3004 ft | 235 kts | 302° |
| 2026-04-15 21:25 | 51.50102 | 22.02783 | 2535 ft | 175 kts | 301° |
| 2026-04-15 21:26 | 51.50701 | 22.01134 | 2028 ft | 168 kts | 299° |
| 2026-04-15 21:26 | 51.51284 | 21.99519 | 1471 ft | 165 kts | 302° |
| 2026-04-15 21:26 | 51.51875 | 21.97942 | 1195 ft | 163 kts | 301° |
| 2026-04-15 21:26 | 51.52426 | 21.96468 | 992 ft | 142 kts | 302° |
| 2026-04-15 21:27 | 51.52899 | 21.95190 | 765 ft | 143 kts | 299° |
| 2026-04-15 21:27 | 51.53476 | 21.93624 | 749 ft | 184 kts | 302° |
| 2026-04-15 21:27 | 51.53882 | 21.92523 | 669 ft | 165 kts | 301° |
| 2026-04-15 21:27 | 51.54676 | 21.90375 | 510 ft | 209 kts | 300° |
| 2026-04-15 21:28 | 51.55319 | 21.88570 | 616 ft | 341 kts | 301° |
| 2026-04-15 21:28 | 51.57489 | 21.87673 | 2928 ft | 384 kts | 44° |
| 2026-04-15 21:28 | 51.57865 | 21.91831 | 4185 ft | 408 kts | 89° |
| 2026-04-15 21:28 | 51.57860 | 21.96552 | 4737 ft | 431 kts | 91° |
| 2026-04-15 21:29 | 51.57806 | 22.01434 | 4963 ft | 451 kts | 89° |
| 2026-04-15 21:29 | 51.57749 | 22.06597 | 5000 ft | 466 kts | 96° |
| 2026-04-15 21:29 | 51.56417 | 22.11235 | 4368 ft | 467 kts | 139° |
| 2026-04-15 21:29 | 51.53442 | 22.12732 | 3504 ft | 445 kts | 202° |
| 2026-04-15 21:30 | 51.50934 | 22.10455 | 3262 ft | 399 kts | 220° |
| 2026-04-15 21:30 | 51.49289 | 22.07133 | 2803 ft | 370 kts | 253° |
| 2026-04-15 21:30 | 51.49921 | 22.03433 | 2272 ft | 349 kts | 299° |
| 2026-04-15 21:30 | 51.51155 | 22.00035 | 2147 ft | 356 kts | 301° |
| 2026-04-15 21:31 | 51.53563 | 21.93434 | 2096 ft | 351 kts | 301° |
| 2026-04-15 21:31 | 51.54808 | 21.90055 | 2122 ft | 354 kts | 301° |
| 2026-04-15 21:32 | 51.56134 | 21.92159 | 1796 ft | 234 kts | 124° |
| 2026-04-15 21:32 | 51.55416 | 21.93856 | 1769 ft | 139 kts | 125° |
| 2026-04-15 21:32 | 51.54596 | 21.94324 | 1451 ft | 128 kts | 200° |
| 2026-04-15 21:32 | 51.53979 | 21.93428 | 1191 ft | 126 kts | 253° |
| 2026-04-15 21:33 | 51.54124 | 21.91941 | 829 ft | 150 kts | 297° |
| 2026-04-15 21:33 | 51.54913 | 21.89752 | 740 ft | 326 kts | 300° |
| 2026-04-15 21:33 | 51.55971 | 21.89699 | 3695 ft | 260 kts | 119° |
| 2026-04-15 21:33 | 51.55134 | 21.93114 | 4554 ft | 405 kts | 113° |
| 2026-04-15 21:34 | 51.53861 | 21.97669 | 4825 ft | 480 kts | 115° |
| 2026-04-15 21:34 | 51.52525 | 22.02580 | 4986 ft | 456 kts | 114° |
| 2026-04-15 21:34 | 51.51186 | 22.06891 | 4994 ft | 400 kts | 150° |
| 2026-04-15 21:34 | 51.49778 | 22.04909 | 4206 ft | 307 kts | 270° |
| 2026-04-15 21:35 | 51.50564 | 22.01826 | 2587 ft | 296 kts | 297° |
| 2026-04-15 21:35 | 51.51491 | 21.99061 | 1779 ft | 268 kts | 300° |
| 2026-04-15 21:35 | 51.52383 | 21.96598 | 1274 ft | 240 kts | 301° |
| 2026-04-15 21:35 | 51.53110 | 21.94602 | 889 ft | 165 kts | 301° |
| 2026-04-15 21:36 | 51.53592 | 21.93309 | 659 ft | 127 kts | 301° |
| 2026-04-15 21:36 | 51.54060 | 21.92045 | 564 ft | 139 kts | 300° |
| 2026-04-15 21:36 | 51.54617 | 21.90533 | 526 ft | 194 kts | 301° |
| 2026-04-15 21:36 | 51.55613 | 21.87849 | 750 ft | 367 kts | 301° |
| 2026-04-15 21:37 | 51.57962 | 21.85864 | 1239 ft | 469 kts | 31° |
| 2026-04-15 21:37 | 51.58499 | 21.90912 | 1922 ft | 515 kts | 90° |
| 2026-04-15 21:37 | 51.58388 | 21.96731 | 2120 ft | 521 kts | 91° |
| 2026-04-15 21:37 | 51.58317 | 22.02366 | 2043 ft | 485 kts | 90° |
| 2026-04-15 21:38 | 51.58287 | 22.07667 | 2006 ft | 458 kts | 90° |
| 2026-04-15 21:38 | 51.57069 | 22.11929 | 1880 ft | 425 kts | 148° |
| 2026-04-15 21:38 | 51.54346 | 22.12151 | 1977 ft | 399 kts | 211° |
| 2026-04-15 21:38 | 51.52297 | 22.09240 | 1755 ft | 400 kts | 227° |
| 2026-04-15 21:39 | 51.50648 | 22.05707 | 1853 ft | 392 kts | 245° |
| 2026-04-15 21:39 | 51.50679 | 22.01596 | 1468 ft | 385 kts | 297° |
| 2026-04-15 21:39 | 51.51940 | 21.97767 | 920 ft | 396 kts | 301° |
| 2026-04-15 21:39 | 51.53372 | 21.93907 | 530 ft | 400 kts | 300° |
| 2026-04-15 21:40 | 51.54915 | 21.89796 | 945 ft | 406 kts | 316° |
| 2026-04-15 21:40 | 51.56103 | 21.91127 | 1430 ft | 270 kts | 126° |
| 2026-04-15 21:40 | 51.55196 | 21.93411 | 1404 ft | 204 kts | 120° |
| 2026-04-15 21:40 | 51.54228 | 21.93809 | 1057 ft | 143 kts | 225° |
| 2026-04-15 21:41 | 51.53990 | 21.92804 | 791 ft | 126 kts | 270° |
| 2026-04-15 21:41 | 51.54240 | 21.91565 | 516 ft | 106 kts | 300° |
| 2026-04-15 21:41 | 51.54595 | 21.90601 | 381 ft | 90 kts | 301° |
| 2026-04-15 21:41 | 51.54848 | 21.89929 | 383 ft | 56 kts | 301° |
| 2026-04-15 21:42 | 51.55011 | 21.89495 | 381 ft | 29 kts | 301° |
| 2026-04-15 21:42 | 51.55096 | 21.89270 | 382 ft | 20 kts | 301° |
| 2026-04-15 21:42 | 51.55105 | 21.89245 | 382 ft | 19 kts | 301° |